Roosevelt Roads, Puerto Rico
Current Conditions -  °F | °C
As of 7:53 AM on Thursday 18 Dec 2014 (Local Time) from TJNR Reporting Station
Scattered Clouds Scattered Clouds  
Wind Chill: 79°   Ceiling: Unl
Heat Index: 81°   Visibility: 10mi
Dew Point: 67°   Wind: 9mph
Humidity: 66%   Direction: 20°NNE
Pressure: 30.05"   Gusts: NA
Location:  18.25°N, 65.63°W
Report Text: TJNR 181153Z AUTO 02008KT 10SM SCT034 26/19 A3005 RMK AO2 SLP176 60000 T02610194 10261 20239 53014
Loading
Personal Weather Stations






























Interactive Weather Map New forecast layout! Learn more

10-Day Weather Forecast

Advertisements
Track Severe Weather on mobile